French Valley, CA

5:47 AM PST on March 01, 2015 (GMT -0800)
Murrieta/temecula French Vall | Change Station
CLOSE
Current Station
Airport
Location: Murrieta/temecula French Vall,
Elevation: 1348 ft
Nearby Weather Stations

Elev 1348 ft 33.57 °N, 117.13 °W | Updated 12 minutes ago

Overcast
Overcast
48 °F
Feels Like 48 °F
N
5
Wind Variable Wind from ESE

Today
High -- | Low -- °F
--% Chance of Precip.
Yesterday
High -- | Low -- °F
Precip. -- in
6:17 AM 5:45 PM
Waxing Gibbous, 85% visible
Pressure 29.92 in
Visibility 10.0 miles
Clouds Overcast 3200 ft
Dew Point 46 °F
Humidity 93%
Rainfall 0.22 in
Snow Depth Not available.
UV 0 out of 12
Pollen .80 out of 12
Air Quality Not available.
Flu Activity Not available.
METAR KF70 011335Z AUTO 11004KT 10SM OVC032 09/08 A2992 RMK AO1 P0002

More Conditions Fewer Conditions

Pressure 29.92 in
Visibility 10.0 miles
Clouds Overcast 3200 ft
Dew Point 46 °F
Humidity 93%
Rainfall 0.22 in
Snow Depth Not available.
UV 0 out of 12
Pollen .80 out of 12
Air Quality Not available.
Flu Activity Not available.
METAR KF70 011335Z AUTO 11004KT 10SM OVC032 09/08 A2992 RMK AO1 P0002

More Conditions Fewer Conditions

10-Day Weather Forecast

Almanac

Astronomy

Mar. 01, 2015 Rise Set
Actual Time
Civil Twilight
Nautical Twilight
Astronomical Twilight
Moon
Length of Visible Light
Length of Day
Tomorrow will be .
, % of the Moon is Illuminated

Today's Extremes

State Highs State Lows

Community

WunderPhotos

Upload Photos

1,801,382 photos uploaded!

WunderBlogs® & News

Nearby

Air Quality

  Air Quality AQ Index Pollutant
Not available.

Snow Depth

Station Depth Elevation

Earthquake Activity

City Distance Mag. Time & Date
Minimum magnitude displayed is 2.5.

Coastal Water Temperatures

Place Temperature

Nearby Weather Stations